Time;durP1;ratioP1;P1;durP2;ratioP2;P2;SDS_P1;SDS_P2;PMS_P1;PMS_P2;Temp;Humidity;BMP_temperature;BMP_pressure;BME280_temperature;BME280_humidity;BME280_pressure;Samples;Min_cycle;Max_cycle;Signal;HPM_P1;HPM_P2
2022/03/07 00:00:21;;;;;;;9.83;5.60;;;;;;;-142.75;100.00;79571.38;5013471;28;20292;-69
2022/03/07 00:02:47;;;;;;;13.13;4.97;;;;;;;-142.75;100.00;79579.25;5031708;28;20272;-69
2022/03/07 00:05:12;;;;;;;;;;;;;;;-142.75;100.00;79577.28;5026089;28;21028;-69
2022/03/07 00:07:38;;;;;;;11.10;4.87;;;;;;;-142.75;100.00;79587.13;5020633;28;20000;-70
2022/03/07 00:10:03;;;;;;;8.27;5.22;;;;;;;-142.75;100.00;79579.25;5012121;28;20492;-69
2022/03/07 00:12:28;;;;;;;8.27;5.30;;;;;;;-142.75;100.00;79583.19;5021821;28;20021;-69
2022/03/07 00:14:54;;;;;;;9.37;5.47;;;;;;;-142.75;100.00;79581.22;5017789;28;20021;-70
2022/03/07 00:17:19;;;;;;;10.10;5.38;;;;;;;-142.75;100.00;79579.25;5014995;28;20275;-69
2022/03/07 00:19:44;;;;;;;9.57;5.53;;;;;;;-142.75;100.00;79577.28;5017210;28;20036;-69
2022/03/07 00:22:10;;;;;;;9.30;5.33;;;;;;;-142.75;100.00;79581.22;5026285;28;20291;-69
2022/03/07 00:24:35;;;;;;;9.05;5.25;;;;;;;-142.75;100.00;79575.31;5026269;28;20041;-69
2022/03/07 00:27:00;;;;;;;9.13;4.87;;;;;;;-142.75;100.00;79583.19;5018116;28;20101;-70
2022/03/07 00:29:27;;;;;;;10.93;5.13;;;;;;;-142.75;100.00;79589.09;5021137;28;20277;-69
2022/03/07 00:31:53;;;;;;;10.20;5.37;;;;;;;-142.75;100.00;79596.97;5011560;28;20276;-71
2022/03/07 00:34:18;;;;;;;11.38;5.50;;;;;;;-142.75;100.00;79606.84;5019940;28;20022;-69
2022/03/07 00:36:43;;;;;;;9.40;4.73;;;;;;;-142.75;100.00;79630.47;5016387;28;20087;-70
2022/03/07 00:39:08;;;;;;;10.30;5.85;;;;;;;-142.75;100.00;79632.44;5029832;28;20029;-69
2022/03/07 00:41:34;;;;;;;8.48;5.63;;;;;;;-142.75;100.00;79642.28;5030560;28;20082;-68
2022/03/07 00:43:59;;;;;;;10.90;5.40;;;;;;;-142.75;100.00;79640.31;5023283;28;20025;-68
2022/03/07 00:46:24;;;;;;;12.90;5.67;;;;;;;-142.75;100.00;79638.34;5028730;28;20038;-69
2022/03/07 00:48:50;;;;;;;11.45;6.10;;;;;;;-142.75;100.00;79654.13;5018469;28;20055;-72
2022/03/07 00:51:16;;;;;;;7.20;5.32;;;;;;;-142.75;100.00;79646.22;5018019;28;20022;-69
2022/03/07 00:53:42;;;;;;;11.15;5.47;;;;;;;-142.75;100.00;79652.13;5020558;28;20032;-69
2022/03/07 00:56:07;;;;;;;15.32;6.00;;;;;;;-142.75;100.00;79669.88;5019563;28;20049;-69
2022/03/07 00:58:33;;;;;;;8.30;5.43;;;;;;;-142.75;100.00;79679.72;5026857;28;20063;-69
2022/03/07 01:00:58;;;;;;;11.10;6.40;;;;;;;-142.75;100.00;79679.72;5022201;28;20399;-69
2022/03/07 01:03:23;;;;;;;9.60;5.78;;;;;;;-142.75;100.00;79677.75;5022482;28;20406;-69
2022/03/07 01:05:49;;;;;;;8.47;5.03;;;;;;;-142.75;100.00;79663.97;5023693;28;20037;-69
2022/03/07 01:08:14;;;;;;;9.45;5.68;;;;;;;-142.75;100.00;79665.94;5022895;28;20294;-69
2022/03/07 01:10:40;;;;;;;11.32;5.72;;;;;;;-142.75;100.00;79669.88;5019784;28;20484;-70
2022/03/07 01:13:06;;;;;;;9.48;5.53;;;;;;;-142.75;100.00;79677.75;5022642;28;20099;-69
2022/03/07 01:15:31;;;;;;;10.33;5.43;;;;;;;-142.75;100.00;79665.94;5026243;28;20036;-68
2022/03/07 01:17:59;;;;;;;10.40;5.45;;;;;;;-142.75;100.00;79663.97;5018692;28;20025;-70
2022/03/07 01:20:26;;;;;;;9.10;5.00;;;;;;;-142.75;100.00;79654.13;5031178;28;20017;-70
2022/03/07 01:22:51;;;;;;;9.70;5.70;;;;;;;-142.75;100.00;79662.00;5021588;28;20037;-70
2022/03/07 01:25:16;;;;;;;8.55;4.57;;;;;;;-142.75;100.00;79652.13;5023621;28;20076;-70
2022/03/07 01:27:42;;;;;;;9.35;5.43;;;;;;;-142.75;100.00;79644.25;5020950;28;20427;-70
2022/03/07 01:30:08;;;;;;;8.57;5.65;;;;;;;-142.75;100.00;79644.25;5023755;28;20024;-70
2022/03/07 01:32:34;;;;;;;9.27;5.77;;;;;;;-142.75;100.00;79634.41;5025081;28;20073;-70
2022/03/07 01:34:59;;;;;;;7.35;4.93;;;;;;;-142.75;100.00;79652.13;5028373;28;20123;-70
2022/03/07 01:37:25;;;;;;;8.85;5.18;;;;;;;-142.75;100.00;79656.09;5021061;28;20025;-69
2022/03/07 01:39:50;;;;;;;9.63;5.00;;;;;;;-142.75;100.00;79638.34;5017695;28;20395;-69
2022/03/07 01:42:16;;;;;;;11.85;5.82;;;;;;;-142.75;100.00;79656.09;5030111;28;20475;-71
2022/03/07 01:44:41;;;;;;;8.63;5.25;;;;;;;-142.75;100.00;79663.97;5020823;28;20127;-70
2022/03/07 01:47:07;;;;;;;10.60;4.88;;;;;;;-142.75;100.00;79662.00;5020799;28;20025;-70
2022/03/07 01:49:33;;;;;;;8.13;4.95;;;;;;;-142.75;100.00;79665.94;5022962;28;20479;-71
2022/03/07 01:51:58;;;;;;;11.63;5.70;;;;;;;-142.75;100.00;79681.69;5021223;28;20040;-69
2022/03/07 01:54:24;;;;;;;12.68;6.28;;;;;;;-142.75;100.00;79693.50;5026850;28;20045;-69
2022/03/07 01:56:51;;;;;;;9.18;5.65;;;;;;;-142.75;100.00;79695.47;5028804;28;20486;-69
2022/03/07 01:59:21;;;;;;;9.90;5.70;;;;;;;-142.75;100.00;79707.31;5026541;28;20053;-68
2022/03/07 02:01:47;;;;;;;9.67;5.63;;;;;;;-142.75;100.00;79725.03;5020376;28;20076;-69
2022/03/07 02:04:12;;;;;;;9.63;5.70;;;;;;;-142.75;100.00;79730.94;5029631;28;20471;-68
2022/03/07 02:06:39;;;;;;;10.63;5.60;;;;;;;-142.75;100.00;79728.97;5014512;28;20075;-70
2022/03/07 02:09:06;;;;;;;10.70;5.67;;;;;;;-142.75;100.00;79723.06;5022624;28;20036;-69
2022/03/07 02:11:32;;;;;;;11.00;6.13;;;;;;;-142.75;100.00;79744.72;5020819;28;20022;-69
2022/03/07 02:13:57;;;;;;;10.07;6.33;;;;;;;-142.75;100.00;79748.66;5022501;28;20018;-68
2022/03/07 02:16:23;;;;;;;11.00;6.20;;;;;;;-142.75;100.00;79746.69;5023456;28;20056;-68
2022/03/07 02:18:48;;;;;;;9.90;6.50;;;;;;;-142.75;100.00;79758.53;5033719;28;20022;-69
2022/03/07 02:21:15;;;;;;;10.02;5.78;;;;;;;-142.75;100.00;79768.38;5027962;28;20025;-69
2022/03/07 02:23:43;;;;;;;11.60;6.10;;;;;;;-142.75;100.00;79764.44;5014102;28;20025;-70
2022/03/07 02:26:16;;;;;;;11.73;6.03;;;;;;;-142.75;100.00;79752.63;5021998;28;20026;-69
2022/03/07 02:28:43;;;;;;;12.17;7.47;;;;;;;-142.75;100.00;79758.53;5033482;28;20071;-69
2022/03/07 02:31:10;;;;;;;10.00;6.17;;;;;;;-142.75;100.00;79756.56;5023423;28;20022;-68
2022/03/07 02:33:36;;;;;;;11.77;6.67;;;;;;;-142.75;100.00;79754.59;5015186;28;20032;-70
2022/03/07 02:36:02;;;;;;;;;;;;;;;-142.75;100.00;79750.66;5022133;28;20033;-71
2022/03/07 02:38:28;;;;;;;10.47;6.07;;;;;;;-142.75;100.00;79746.69;5033267;28;19960;-71
2022/03/07 02:40:53;;;;;;;10.00;6.35;;;;;;;-142.75;100.00;79740.78;5016412;28;20060;-69
2022/03/07 02:43:18;;;;;;;9.57;5.97;;;;;;;-142.75;100.00;79742.75;5024764;28;20041;-69
2022/03/07 02:45:44;;;;;;;8.68;5.75;;;;;;;-142.75;100.00;79736.84;5026168;28;20502;-68
2022/03/07 02:48:09;;;;;;;9.43;5.13;;;;;;;-142.75;100.00;79748.66;5025673;28;20399;-68
2022/03/07 02:50:35;;;;;;;9.32;5.68;;;;;;;-142.75;100.00;79748.66;5032976;28;20037;-69
2022/03/07 02:53:00;;;;;;;11.05;6.55;;;;;;;-142.75;100.00;79748.66;5016515;28;20393;-69
2022/03/07 02:55:26;;;;;;;8.70;5.32;;;;;;;-142.75;100.00;79754.59;5019221;28;20527;-69
2022/03/07 02:57:51;;;;;;;10.80;6.18;;;;;;;-142.75;100.00;79764.44;5018441;28;20412;-70
2022/03/07 03:00:17;;;;;;;13.55;6.43;;;;;;;-142.75;100.00;79752.63;5017748;28;20107;-69
2022/03/07 03:02:42;;;;;;;10.60;5.88;;;;;;;-142.75;100.00;79752.63;5030381;28;20030;-69
2022/03/07 03:05:08;;;;;;;14.57;6.20;;;;;;;-142.75;100.00;79762.47;5014590;28;20057;-70
2022/03/07 03:07:34;;;;;;;10.20;5.93;;;;;;;-142.75;100.00;79766.41;5028386;28;20269;-67
2022/03/07 03:10:00;;;;;;;10.23;6.38;;;;;;;-142.75;100.00;79770.34;5028001;28;20545;-68
2022/03/07 03:12:26;;;;;;;11.33;5.73;;;;;;;-142.75;100.00;79778.22;5013102;28;20112;-68
2022/03/07 03:14:52;;;;;;;9.52;6.20;;;;;;;-142.75;100.00;79778.22;5014522;28;20108;-69
2022/03/07 03:17:17;;;;;;;9.63;6.03;;;;;;;-142.75;100.00;79784.13;5018801;28;20117;-69
2022/03/07 03:19:42;;;;;;;11.52;6.25;;;;;;;-142.75;100.00;79776.25;5012883;28;20021;-69
2022/03/07 03:22:08;;;;;;;8.80;5.63;;;;;;;-142.75;100.00;79762.47;5018836;28;20097;-68
2022/03/07 03:24:33;;;;;;;11.10;6.03;;;;;;;-142.75;100.00;79762.47;5019134;28;20773;-69
2022/03/07 03:26:58;;;;;;;13.30;6.07;;;;;;;-142.75;100.00;79768.38;5013585;28;20301;-70
2022/03/07 03:29:24;;;;;;;10.67;5.63;;;;;;;-142.75;100.00;79768.38;5022298;28;20275;-69
2022/03/07 03:34:24;;;;;;;8.70;5.87;;;;;;;-142.75;100.00;79780.19;5069931;22;20037;-69
2022/03/07 03:36:49;;;;;;;9.60;5.50;;;;;;;-142.75;100.00;79764.44;5051264;28;20032;-67
2022/03/07 03:39:15;;;;;;;9.15;5.63;;;;;;;-142.75;100.00;79752.63;5052155;28;20024;-68
2022/03/07 03:41:40;;;;;;;11.52;6.05;;;;;;;-142.75;100.00;79764.44;5052446;28;20104;-68
2022/03/07 03:44:05;;;;;;;9.73;5.43;;;;;;;-142.75;100.00;79776.25;5052319;28;20127;-67
2022/03/07 03:46:31;;;;;;;10.57;5.55;;;;;;;-142.75;100.00;79778.22;5050988;28;20553;-68
2022/03/07 03:48:56;;;;;;;13.30;6.15;;;;;;;-142.75;100.00;79772.31;5051830;28;20021;-67
2022/03/07 03:51:22;;;;;;;11.38;5.90;;;;;;;-142.75;100.00;79776.25;5050901;28;20025;-68
2022/03/07 03:53:47;;;;;;;8.68;6.07;;;;;;;-142.75;100.00;79778.22;5052073;28;20028;-67
2022/03/07 03:56:12;;;;;;;11.15;5.93;;;;;;;-142.75;100.00;79778.22;5050684;28;20070;-68
2022/03/07 03:58:38;;;;;;;9.73;6.00;;;;;;;-142.75;100.00;79770.34;5050517;28;20078;-68
2022/03/07 04:01:03;;;;;;;11.73;6.10;;;;;;;-142.75;100.00;79776.25;5050726;28;20494;-68
2022/03/07 04:03:28;;;;;;;10.35;6.50;;;;;;;-142.75;100.00;79780.19;5051680;28;20478;-68
2022/03/07 04:05:54;;;;;;;7.57;5.55;;;;;;;-142.75;100.00;79784.13;5051968;28;20076;-68
2022/03/07 04:08:19;;;;;;;10.37;6.17;;;;;;;-142.75;100.00;79786.09;5051570;28;20021;-68
2022/03/07 04:10:44;;;;;;;10.90;6.18;;;;;;;-142.75;100.00;79784.13;5051836;28;20756;-68
2022/03/07 04:13:10;;;;;;;14.43;6.20;;;;;;;-142.75;100.00;79790.03;5051680;28;20028;-68
2022/03/07 04:15:38;;;;;;;10.95;6.13;;;;;;;-142.75;100.00;79805.81;5051577;28;20056;-68
2022/03/07 04:18:05;;;;;;;8.53;6.13;;;;;;;-142.75;100.00;79811.72;5050249;28;20032;-67
2022/03/07 04:20:31;;;;;;;11.87;6.03;;;;;;;-142.75;100.00;79809.75;5051624;28;20055;-68
2022/03/07 04:22:56;;;;;;;9.75;6.45;;;;;;;-142.75;100.00;79809.75;5051474;28;20029;-67
2022/03/07 04:25:22;;;;;;;9.30;6.30;;;;;;;-142.75;100.00;79819.59;5051563;28;20052;-68
2022/03/07 04:27:47;;;;;;;13.18;6.93;;;;;;;-142.75;100.00;79827.47;5051308;28;20029;-67
2022/03/07 04:30:12;;;;;;;11.35;5.43;;;;;;;-142.75;100.00;79817.63;5051396;28;20020;-68
2022/03/07 04:32:38;;;;;;;10.63;6.60;;;;;;;-142.75;100.00;79825.50;5051087;28;20033;-67
2022/03/07 04:35:07;;;;;;;10.80;6.93;;;;;;;-142.75;100.00;79835.34;5050955;28;20021;-68
2022/03/07 04:37:34;;;;;;;11.27;6.40;;;;;;;-142.75;100.00;79825.50;5051193;28;20036;-67
2022/03/07 04:40:00;;;;;;;9.73;6.50;;;;;;;-142.75;100.00;79821.56;5050983;28;20051;-68
2022/03/07 04:42:26;;;;;;;12.23;6.23;;;;;;;-142.75;100.00;79825.50;5051081;28;20032;-68
2022/03/07 04:44:51;;;;;;;10.90;6.40;;;;;;;-142.75;100.00;79835.34;5051215;28;20029;-68
2022/03/07 04:47:16;;;;;;;14.15;6.78;;;;;;;-142.75;100.00;79829.44;5051048;28;20021;-68
2022/03/07 04:49:42;;;;;;;12.40;6.67;;;;;;;-142.75;100.00;79825.50;5050823;28;20029;-68
2022/03/07 04:52:07;;;;;;;11.85;6.57;;;;;;;-142.75;100.00;79817.63;5050985;28;20055;-68
2022/03/07 04:54:32;;;;;;;12.30;6.97;;;;;;;-142.75;100.00;79811.72;5050918;28;20024;-67
2022/03/07 04:56:58;;;;;;;8.80;6.70;;;;;;;-142.75;100.00;79813.69;5050919;28;20033;-68
2022/03/07 04:59:23;;;;;;;13.55;7.28;;;;;;;-142.75;100.00;79819.59;5050639;28;20475;-68
2022/03/07 05:01:48;;;;;;;10.23;6.63;;;;;;;-142.75;100.00;79829.44;5049643;28;20020;-68
2022/03/07 05:04:13;;;;;;;11.80;6.65;;;;;;;-142.75;100.00;79831.41;5050773;28;20021;-68
2022/03/07 05:06:39;;;;;;;9.63;6.38;;;;;;;-142.75;100.00;79831.41;5050935;28;20036;-68
2022/03/07 05:09:04;;;;;;;12.32;6.75;;;;;;;-142.75;100.00;79831.41;5050630;28;20478;-67
2022/03/07 05:11:29;;;;;;;10.13;6.68;;;;;;;-142.75;100.00;79815.66;5048136;28;20017;-67
2022/03/07 05:13:55;;;;;;;14.15;7.80;;;;;;;-142.75;100.00;79829.44;5049381;28;20118;-67
2022/03/07 05:16:20;;;;;;;9.73;6.63;;;;;;;-142.75;100.00;79823.53;5050667;28;20029;-67
2022/03/07 05:18:45;;;;;;;11.75;7.30;;;;;;;-142.75;100.00;79815.66;5050464;28;20267;-67
2022/03/07 05:21:11;;;;;;;11.52;6.38;;;;;;;-142.75;100.00;79825.50;5050648;28;20023;-67
2022/03/07 05:23:36;;;;;;;11.43;6.85;;;;;;;-142.75;100.00;79827.47;5050650;28;20043;-67
2022/03/07 05:26:01;;;;;;;14.68;7.88;;;;;;;-142.75;100.00;79829.44;5050600;28;20044;-67
2022/03/07 05:28:26;;;;;;;11.38;7.50;;;;;;;-142.75;100.00;79821.56;5049866;28;20386;-68
2022/03/07 05:30:52;;;;;;;11.87;7.77;;;;;;;-142.75;100.00;79829.44;5050697;28;20459;-68
2022/03/07 05:33:17;;;;;;;11.03;7.33;;;;;;;-142.75;100.00;79855.06;5050485;28;20271;-67
2022/03/07 05:35:42;;;;;;;13.17;7.40;;;;;;;-142.75;100.00;79870.81;5050543;28;20287;-68
2022/03/07 05:38:08;;;;;;;11.17;6.90;;;;;;;-142.75;100.00;79874.75;5050220;28;20699;-68
2022/03/07 05:40:34;;;;;;;11.95;7.32;;;;;;;-142.75;100.00;79876.72;5050547;28;20031;-67
2022/03/07 05:42:59;;;;;;;13.90;7.07;;;;;;;-142.75;100.00;79890.50;5049160;28;21127;-68
2022/03/07 05:45:24;;;;;;;10.88;7.40;;;;;;;-142.75;100.00;79896.44;5050424;28;20041;-68
2022/03/07 05:47:50;;;;;;;11.18;6.88;;;;;;;-142.75;100.00;79900.38;5047579;28;20033;-67
2022/03/07 05:50:15;;;;;;;12.35;7.05;;;;;;;-142.75;100.00;79906.28;5050292;28;20402;-68
2022/03/07 05:52:41;;;;;;;11.85;7.45;;;;;;;-142.75;100.00;79916.13;5049072;28;20068;-68
2022/03/07 05:55:06;;;;;;;16.45;7.55;;;;;;;-142.75;100.00;79920.06;5050249;28;20056;-67
2022/03/07 05:57:33;;;;;;;13.48;6.95;;;;;;;-142.75;100.00;79922.03;5050293;28;20108;-68
2022/03/07 05:59:58;;;;;;;13.43;7.15;;;;;;;-142.75;100.00;79927.94;5049957;28;20033;-67
2022/03/07 06:02:23;;;;;;;12.38;6.63;;;;;;;-142.75;100.00;79959.47;5050404;28;20027;-68
2022/03/07 06:04:49;;;;;;;12.00;7.30;;;;;;;-142.75;100.00;79953.56;5050293;28;21466;-68
2022/03/07 06:07:14;;;;;;;12.95;7.00;;;;;;;-142.75;100.00;79947.66;5050212;28;20049;-67
2022/03/07 06:09:39;;;;;;;10.30;6.90;;;;;;;-142.75;100.00;79949.63;5049824;28;20017;-67
2022/03/07 06:12:06;;;;;;;13.15;7.45;;;;;;;-142.75;100.00;79945.69;5050114;28;20360;-68
2022/03/07 06:14:31;;;;;;;;;;;;;;;-142.75;100.00;79951.59;5050534;28;20024;-67
2022/03/07 06:16:56;;;;;;;11.40;7.53;;;;;;;-142.75;100.00;79949.63;5050095;28;20371;-68
2022/03/07 06:19:21;;;;;;;12.70;7.40;;;;;;;-142.75;100.00;79949.63;5049611;28;20486;-68
2022/03/07 06:21:47;;;;;;;14.20;7.33;;;;;;;-142.75;100.00;79949.63;5050050;28;20044;-67
2022/03/07 06:24:12;;;;;;;13.13;7.90;;;;;;;-142.75;100.00;79949.63;5049760;28;20280;-68
2022/03/07 06:26:37;;;;;;;12.48;8.27;;;;;;;-142.75;100.00;79947.66;5050126;28;20633;-68
2022/03/07 06:29:05;;;;;;;11.27;7.57;;;;;;;-142.75;100.00;79937.81;5049629;28;20044;-68
2022/03/07 06:31:30;;;;;;;14.50;7.87;;;;;;;-142.75;100.00;79920.06;5050046;28;20017;-68
2022/03/07 06:33:56;;;;;;;16.30;8.68;;;;;;;-142.75;100.00;79894.47;5049744;28;20454;-68
2022/03/07 06:36:21;;;;;;;12.73;7.50;;;;;;;-142.75;100.00;79882.63;5049986;28;20029;-67
2022/03/07 06:38:46;;;;;;;12.63;8.17;;;;;;;-142.75;100.00;79874.75;5049577;28;20275;-68
2022/03/07 06:41:12;;;;;;;12.10;7.17;;;;;;;-142.75;100.00;79862.94;5052392;28;20274;-67
2022/03/07 06:43:38;;;;;;;19.73;8.07;;;;;;;-142.75;100.00;79859.00;5053404;28;20283;-68
2022/03/07 06:46:04;;;;;;;11.37;7.40;;;;;;;-142.75;100.00;79831.41;5052078;28;20548;-67
2022/03/07 06:48:29;;;;;;;14.15;7.63;;;;;;;-142.75;100.00;79831.41;5053072;28;20037;-68
2022/03/07 06:50:54;;;;;;;15.23;8.30;;;;;;;-142.75;100.00;79817.63;5053365;28;20526;-68
2022/03/07 06:53:20;;;;;;;12.15;7.35;;;;;;;-142.75;100.00;79807.78;5053156;28;20078;-68
2022/03/07 06:55:45;;;;;;;16.33;7.82;;;;;;;-142.75;100.00;79786.09;5053124;28;20111;-67
2022/03/07 06:58:10;;;;;;;13.15;8.27;;;;;;;-142.75;100.00;79760.50;5053028;28;20116;-67
2022/03/07 07:00:36;;;;;;;15.18;7.30;;;;;;;-142.75;100.00;79742.75;5053075;28;20100;-67
2022/03/07 07:03:01;;;;;;;11.40;7.00;;;;;;;-142.75;100.00;79719.13;5051672;28;20100;-67
2022/03/07 07:05:27;;;;;;;15.02;8.23;;;;;;;-142.75;100.00;79713.22;5053062;28;20032;-67
2022/03/07 07:07:53;;;;;;;13.40;7.60;;;;;;;-142.75;100.00;79689.56;5051402;28;20028;-67
2022/03/07 07:10:19;;;;;;;9.32;6.68;;;;;;;-142.75;100.00;79673.81;5052964;28;20502;-67
2022/03/07 07:12:46;;;;;;;11.82;7.72;;;;;;;-142.75;100.00;79658.06;5052840;28;20021;-68
2022/03/07 07:15:12;;;;;;;12.37;7.13;;;;;;;-142.75;100.00;79665.94;5052720;28;20622;-67
2022/03/07 07:17:37;;;;;;;9.80;6.97;;;;;;;-142.75;100.00;79652.13;5050631;28;20057;-67
2022/03/07 07:20:04;;;;;;;12.93;7.00;;;;;;;-142.75;100.00;79636.38;5051304;28;20371;-68
2022/03/07 07:22:29;;;;;;;11.33;7.60;;;;;;;-142.75;100.00;79600.91;5052611;28;20275;-67
2022/03/07 07:24:54;;;;;;;9.07;6.63;;;;;;;-142.75;100.00;79577.28;5052762;28;20032;-68
2022/03/07 07:27:20;;;;;;;15.13;7.47;;;;;;;-142.75;100.00;79565.47;5052643;28;20029;-67
2022/03/07 07:29:45;;;;;;;12.25;7.20;;;;;;;-142.75;100.00;79543.78;5052323;28;20273;-67
2022/03/07 07:32:11;;;;;;;16.63;6.72;;;;;;;-142.75;100.00;79531.97;5052280;28;20504;-67
2022/03/07 07:34:36;;;;;;;16.70;7.68;;;;;;;-142.75;100.00;79500.47;5052477;28;20029;-67
2022/03/07 07:37:01;;;;;;;11.63;7.13;;;;;;;-142.75;100.00;79482.72;5052526;28;20043;-67
2022/03/07 07:39:26;;;;;;;14.27;7.25;;;;;;;-142.75;100.00;79480.75;5050836;28;20301;-67
2022/03/07 07:41:52;;;;;;;15.43;7.47;;;;;;;-142.75;100.00;79459.09;5052622;28;20059;-67
2022/03/07 07:44:18;;;;;;;11.18;7.90;;;;;;;-142.75;100.00;79447.28;5052153;28;20029;-67
2022/03/07 07:46:43;;;;;;;14.23;8.10;;;;;;;-142.75;100.00;79425.59;5052301;28;20475;-67
2022/03/07 07:49:09;;;;;;;12.40;7.55;;;;;;;-142.75;100.00;79396.06;5051250;28;20021;-66
2022/03/07 07:51:34;;;;;;;15.30;7.60;;;;;;;-142.75;100.00;79372.41;5050962;28;20441;-67
2022/03/07 07:54:00;;;;;;;16.90;7.90;;;;;;;-142.75;100.00;79348.78;5050906;28;20025;-67
2022/03/07 07:56:27;;;;;;;12.32;7.97;;;;;;;-142.75;100.00;79352.72;5051226;28;20029;-67
2022/03/07 07:58:52;;;;;;;11.60;6.93;;;;;;;-142.75;100.00;79336.94;5049566;28;20398;-67
2022/03/07 08:01:17;;;;;;;11.43;7.57;;;;;;;-142.75;100.00;79291.66;5051103;28;20029;-68
2022/03/07 08:03:43;;;;;;;11.23;7.63;;;;;;;-142.75;100.00;79264.06;5050951;28;20479;-67
2022/03/07 08:06:08;;;;;;;13.15;7.75;;;;;;;-142.75;100.00;79250.28;5050852;28;20071;-67
2022/03/07 08:08:33;;;;;;;10.63;7.63;;;;;;;-142.75;100.00;79220.75;5048897;28;20071;-68
2022/03/07 08:10:58;;;;;;;14.33;7.73;;;;;;;-142.75;100.00;79199.06;5050917;28;20271;-67
2022/03/07 08:13:24;;;;;;;21.75;12.52;;;;;;;-142.75;100.00;79161.66;5050829;28;20021;-67
2022/03/07 08:15:49;;;;;;;14.35;8.35;;;;;;;-142.75;100.00;79171.50;5050698;28;20017;-67
2022/03/07 08:18:14;;;;;;;11.83;6.73;;;;;;;-142.75;100.00;79139.97;5049225;28;20163;-67
2022/03/07 08:20:40;;;;;;;13.73;8.00;;;;;;;-142.75;100.00;79112.41;5050599;28;20271;-67
2022/03/07 08:23:05;;;;;;;17.42;8.10;;;;;;;-142.75;100.00;79076.94;5050536;28;20060;-67
2022/03/07 08:25:32;;;;;;;15.00;8.10;;;;;;;-142.75;100.00;79037.56;5050552;28;20017;-67
2022/03/07 08:27:58;;;;;;;15.33;7.93;;;;;;;-142.75;100.00;79023.75;5048706;28;20056;-67
2022/03/07 08:30:25;;;;;;;14.35;7.35;;;;;;;-142.75;100.00;79041.50;5050720;28;20514;-67
2022/03/07 08:32:51;;;;;;;10.63;7.13;;;;;;;-142.75;100.00;78992.25;5050446;28;20155;-67
2022/03/07 08:35:17;;;;;;;12.82;8.48;;;;;;;-142.75;100.00;78962.69;5050418;28;20495;-67
2022/03/07 08:37:45;;;;;;;11.83;7.97;;;;;;;-142.75;100.00;78946.94;5050409;28;20048;-67
2022/03/07 08:40:12;;;;;;;12.00;7.87;;;;;;;-142.75;100.00;78946.94;5050232;28;20521;-67
2022/03/07 08:42:37;;;;;;;17.27;9.73;;;;;;;-142.75;100.00;78881.94;5050460;28;20025;-68
2022/03/07 08:45:04;;;;;;;13.40;7.90;;;;;;;-142.75;100.00;78891.78;5050477;28;20077;-67
2022/03/07 08:47:29;;;;;;;9.33;6.97;;;;;;;-142.75;100.00;78860.28;5050371;28;20029;-67
2022/03/07 08:49:56;;;;;;;15.90;9.97;;;;;;;-142.75;100.00;78771.66;5048440;28;20024;-67
2022/03/07 08:52:21;;;;;;;13.73;7.87;;;;;;;-142.75;100.00;78834.69;5050071;28;20342;-67
2022/03/07 08:54:47;;;;;;;11.65;7.85;;;;;;;-142.75;98.63;78787.41;5050063;28;20171;-67
2022/03/07 08:57:13;;;;;;;14.07;7.75;;;;;;;-142.75;98.70;78811.03;5050179;28;20219;-67
2022/03/07 08:59:38;;;;;;;12.80;7.60;;;;;;;-142.75;99.63;78826.81;5049789;28;20029;-67
2022/03/07 09:02:04;;;;;;;10.90;7.75;;;;;;;-142.75;97.21;78828.78;5049773;28;20031;-68
2022/03/07 09:04:29;;;;;;;12.15;9.15;;;;;;;-142.75;97.78;78826.81;5049505;28;20041;-68
2022/03/07 09:06:55;;;;;;;12.30;8.00;;;;;;;-142.75;100.00;78830.75;5048502;28;20028;-67
2022/03/07 09:09:20;;;;;;;13.75;8.18;;;;;;;-142.75;97.30;78795.28;5049706;28;20423;-68
2022/03/07 09:11:47;;;;;;;10.35;6.88;;;;;;;-142.75;95.91;78783.47;5048642;28;20017;-68
2022/03/07 09:14:12;;;;;;;11.33;7.27;;;;;;;-142.75;89.50;78793.31;5048437;28;20539;-68
2022/03/07 09:16:37;;;;;;;10.35;6.72;;;;;;;-142.75;90.86;78834.69;5049561;28;20104;-68
2022/03/07 09:19:03;;;;;;;9.13;6.63;;;;;;;-142.75;88.09;78807.09;5049490;28;20036;-68
2022/03/07 09:21:29;;;;;;;9.70;6.00;;;;;;;-142.75;87.13;78791.34;5049776;28;20275;-68
2022/03/07 09:23:54;;;;;;;9.88;6.82;;;;;;;-142.75;84.80;78771.66;5049787;28;20131;-68
2022/03/07 09:26:19;;;;;;;10.23;6.10;;;;;;;-142.75;84.57;78765.75;5049596;28;20020;-68
2022/03/07 09:28:44;;;;;;;10.37;5.73;;;;;;;-142.75;82.45;78751.97;5049405;28;20021;-68
2022/03/07 09:31:10;;;;;;;6.78;4.88;;;;;;;-142.75;81.45;78716.50;5049699;28;20661;-68
2022/03/07 09:33:35;;;;;;;8.85;5.10;;;;;;;-142.75;75.50;78659.38;5047930;28;20387;-68
2022/03/07 09:36:01;;;;;;;7.10;5.25;;;;;;;-142.75;74.41;78641.66;5049444;28;20078;-68
2022/03/07 09:38:28;;;;;;;;;;;;;;;-142.75;73.02;78629.84;5049779;28;20037;-68
2022/03/07 09:40:54;;;;;;;9.17;5.80;;;;;;;-142.75;72.85;78584.56;5049575;28;19916;-68
2022/03/07 09:43:19;;;;;;;7.47;5.22;;;;;;;-142.75;73.10;78610.16;5049459;28;20112;-68
2022/03/07 09:45:45;;;;;;;7.10;5.25;;;;;;;-142.75;74.01;78582.59;5049690;28;20112;-68
2022/03/07 09:48:14;;;;;;;7.27;4.97;;;;;;;-142.75;71.92;78590.47;5048953;28;20107;-68
2022/03/07 09:50:43;;;;;;;8.02;5.20;;;;;;;-142.75;73.59;78576.66;5048677;28;20378;-68
2022/03/07 09:53:09;;;;;;;8.88;4.82;;;;;;;-142.75;68.40;78582.59;5049491;28;20024;-68
2022/03/07 09:55:36;;;;;;;8.18;5.35;;;;;;;-142.75;69.26;78671.22;5044877;28;20099;-69
2022/03/07 09:58:01;;;;;;;11.00;5.10;;;;;;;-142.75;72.82;78716.50;5048983;28;20063;-68
2022/03/07 10:00:27;;;;;;;10.13;5.38;;;;;;;-142.75;72.74;78698.78;5048998;28;20033;-69
2022/03/07 10:03:02;;;;;;;5.88;4.32;;;;;;;-142.75;71.65;78677.13;5049334;28;20402;-68
2022/03/07 10:05:36;;;;;;;6.43;4.23;;;;;;;-142.75;69.35;78623.94;5049746;28;20418;-68
2022/03/07 10:08:03;;;;;;;6.13;4.47;;;;;;;-142.75;67.56;78606.22;5049602;28;20505;-68
2022/03/07 10:10:31;;;;;;;9.13;4.57;;;;;;;-142.75;68.70;78643.63;5048861;28;20032;-68
2022/03/07 10:13:01;;;;;;;9.20;5.15;;;;;;;-142.75;70.47;78669.25;5039056;28;20395;-68
2022/03/07 10:15:26;;;;;;;7.70;4.77;;;;;;;-142.75;68.56;78651.50;5050678;28;20033;-68
2022/03/07 10:17:54;;;;;;;9.95;4.78;;;;;;;-142.75;68.86;78616.06;5050441;28;20611;-68
2022/03/07 10:20:22;;;;;;;11.70;4.50;;;;;;;-142.75;67.72;78643.63;5049410;28;20501;-68
2022/03/07 10:22:50;;;;;;;6.83;4.63;;;;;;;-142.75;67.90;78694.84;5048556;28;20045;-68
2022/03/07 10:25:20;;;;;;;8.33;4.77;;;;;;;-142.75;68.96;78732.25;5047212;28;20021;-68
2022/03/07 10:27:48;;;;;;;9.50;4.70;;;;;;;-142.75;70.14;78730.28;5049932;28;20047;-69
2022/03/07 10:30:17;;;;;;;7.07;4.70;;;;;;;-142.75;72.41;78736.19;5053282;28;20040;-67
2022/03/07 10:32:50;;;;;;;6.70;5.20;;;;;;;-142.75;72.99;78706.66;5052851;28;20108;-68
2022/03/07 10:35:23;;;;;;;8.27;5.07;;;;;;;-142.75;71.19;78732.25;5053354;28;20071;-68
2022/03/07 10:37:48;;;;;;;9.43;5.67;;;;;;;-142.75;74.50;78763.78;5052599;28;20029;-68
2022/03/07 10:40:22;;;;;;;8.45;5.55;;;;;;;-142.75;74.31;78779.53;5053756;28;20029;-68
2022/03/07 10:42:49;;;;;;;7.23;5.17;;;;;;;-142.75;73.59;78755.91;5053545;28;20044;-68
2022/03/07 10:45:15;;;;;;;6.73;4.90;;;;;;;-142.75;73.12;78706.66;5053304;28;20017;-68
2022/03/07 10:47:41;;;;;;;6.33;4.93;;;;;;;-142.75;72.24;78625.91;5053177;28;20108;-68
2022/03/07 10:50:08;;;;;;;7.55;5.35;;;;;;;-142.75;71.66;78625.91;5053154;28;20431;-68
2022/03/07 10:52:37;;;;;;;8.17;4.87;;;;;;;-142.75;67.29;78651.50;5052843;28;20035;-68
2022/03/07 10:55:05;;;;;;;6.77;4.67;;;;;;;-142.75;68.43;78704.69;5051514;28;20060;-69
2022/03/07 10:57:37;;;;;;;8.87;5.80;;;;;;;-142.75;72.20;78651.50;5052424;28;20029;-69
2022/03/07 11:00:09;;;;;;;7.33;4.63;;;;;;;-142.75;69.10;78714.53;5052420;28;20024;-69
2022/03/07 11:02:40;;;;;;;7.87;4.70;;;;;;;-142.75;69.11;78728.31;5051877;28;20025;-69